Verbena, Alabama
Current Conditions -  °F | °C
As of 1:35 PM on Tuesday 21 Oct 2014 (Local Time) from K1A9 Reporting Station
Clear Clear  
Wind Chill: 76°   Ceiling: Unl
Heat Index: 76°   Visibility: 10mi
Dew Point: 54°   Wind: 6mph
Humidity: 46%   Direction: 360°N
Pressure: 30"   Gusts: NA
Location:  32.75°N, 86.51°W
Report Text: K1A9 211835Z AUTO 36005KT 10SM CLR 24/12 A3000 RMK AO2 T02440121
Loading
Personal Weather Stations






























Interactive Weather Map New forecast layout! Learn more

10-Day Weather Forecast

Advertisements
Track Severe Weather on mobile